Terminal Aerodrome Forecast
Issued by NWS

Home | Current Version | Previous Version | Text Only | Print | Product List | Glossary On
Versions: 1 2 3 4 5 6 7 8 9 10 11 12 13 14 15 16 17
000
FTUS44 KJAN 102300
TAFHKS
TAF
KHKS 102320Z 1100/1124 VRB05KT P6SM VCTS BKN040CB
     FM110300 00000KT 6SM BR BKN100
     FM111000 00000KT 4SM BR BKN200
     FM111400 27004KT P6SM SCT030
     FM111900 VRB05KT P6SM VCTS BKN040CB=

USA.gov is the U.S. government's official web portal to all federal, state and local government web resources and services.